Time;durP1;ratioP1;P1;durP2;ratioP2;P2;SDS_P1;SDS_P2;PMS_P1;PMS_P2;Temp;Humidity;BMP_temperature;BMP_pressure;BME280_temperature;BME280_humidity;BME280_pressure;Samples;Min_cycle;Max_cycle;Signal;HPM_P1;HPM_P2
2021/11/19 00:00:41;;;;;;;26.95;13.20;;;11.60;99.90;;;;;;5053288;28;20021;-81
2021/11/19 00:03:07;;;;;;;23.88;13.73;;;11.70;99.90;;;;;;5049879;28;20017;-81
2021/11/19 00:05:36;;;;;;;20.85;12.13;;;11.60;99.90;;;;;;5035161;28;20100;-79
2021/11/19 00:08:02;;;;;;;22.52;11.95;;;11.60;99.90;;;;;;5043611;28;20083;-80
2021/11/19 00:10:28;;;;;;;25.45;13.18;;;11.60;99.90;;;;;;5049908;28;20037;-80
2021/11/19 00:12:54;;;;;;;20.98;12.68;;;11.70;99.90;;;;;;5048161;28;20017;-79
2021/11/19 00:15:23;;;;;;;19.25;13.10;;;11.60;99.90;;;;;;5053046;28;20024;-80
2021/11/19 00:17:48;;;;;;;28.38;13.13;;;11.60;99.90;;;;;;5052893;28;20099;-80
2021/11/19 00:20:16;;;;;;;27.00;13.55;;;11.60;99.90;;;;;;5052780;28;20444;-81
2021/11/19 00:22:42;;;;;;;26.13;13.68;;;11.60;99.90;;;;;;5055884;28;20052;-80
2021/11/19 00:25:09;;;;;;;27.58;13.55;;;11.60;99.90;;;;;;5052171;28;20056;-80
2021/11/19 00:27:37;;;;;;;22.88;13.40;;;11.70;99.90;;;;;;5053612;28;20025;-80
2021/11/19 00:30:09;;;;;;;28.95;13.30;;;11.60;99.90;;;;;;5052150;28;20096;-81
2021/11/19 00:32:35;;;;;;;25.02;14.18;;;11.60;99.90;;;;;;5053696;28;20027;-80
2021/11/19 00:35:00;;;;;;;20.67;12.52;;;11.70;99.90;;;;;;5053511;28;20500;-79
2021/11/19 00:37:27;;;;;;;25.95;14.07;;;11.60;99.90;;;;;;5053019;28;20052;-79
2021/11/19 00:39:52;;;;;;;20.77;13.73;;;11.60;99.90;;;;;;5053720;28;20028;-79
2021/11/19 00:42:18;;;;;;;22.77;14.00;;;11.80;99.90;;;;;;5052841;28;20032;-80
2021/11/19 00:44:43;;;;;;;26.35;14.80;;;11.80;99.90;;;;;;5051446;28;20032;-80
2021/11/19 00:47:12;;;;;;;26.77;14.50;;;11.80;99.90;;;;;;5052088;28;20036;-81
2021/11/19 00:49:40;;;;;;;25.17;15.95;;;11.80;99.90;;;;;;5051947;28;20033;-80
2021/11/19 00:52:08;;;;;;;30.27;15.20;;;11.70;99.90;;;;;;5051772;28;20097;-80
2021/11/19 00:54:34;;;;;;;24.67;13.65;;;11.70;99.90;;;;;;5052592;28;20032;-80
2021/11/19 00:57:16;;;;;;;28.85;15.82;;;11.80;99.90;;;;;;5052080;28;20380;-80
2021/11/19 00:59:42;;;;;;;22.13;15.02;;;11.80;99.90;;;;;;5051359;28;20052;-81
2021/11/19 01:02:15;;;;;;;28.92;15.80;;;11.80;99.90;;;;;;5051905;28;20051;-79
2021/11/19 01:04:42;;;;;;;31.95;15.38;;;11.80;99.90;;;;;;5052082;28;20064;-81
2021/11/19 01:07:09;;;;;;;32.00;15.82;;;11.80;99.90;;;;;;5052503;28;20373;-79
2021/11/19 01:09:38;;;;;;;25.85;15.20;;;11.80;99.90;;;;;;5046714;28;20043;-80
2021/11/19 01:12:05;;;;;;;28.98;16.15;;;11.80;99.90;;;;;;5056382;28;20418;-80
2021/11/19 01:14:52;;;;;;;22.42;15.77;;;11.80;99.90;;;;;;5056334;28;20021;-80
2021/11/19 01:17:22;;;;;;;27.30;16.25;;;11.70;99.90;;;;;;5056286;28;20100;-79
2021/11/19 01:20:13;;;;;;;25.25;15.57;;;11.80;99.90;;;;;;5055414;28;20377;-79
2021/11/19 01:22:42;;;;;;;24.48;15.32;;;11.70;99.90;;;;;;5055925;28;20035;-81
2021/11/19 01:25:10;;;;;;;29.45;16.30;;;11.70;99.90;;;;;;5055994;28;20070;-80
2021/11/19 01:27:36;;;;;;;31.52;16.77;;;11.70;99.90;;;;;;5055026;28;20381;-80
2021/11/19 01:30:05;;;;;;;27.58;15.50;;;11.70;99.90;;;;;;5055166;28;20029;-79
2021/11/19 01:32:31;;;;;;;30.92;15.90;;;11.80;99.90;;;;;;5056013;28;20496;-80
2021/11/19 01:34:57;;;;;;;30.85;15.77;;;11.80;99.90;;;;;;5055132;28;20021;-79
2021/11/19 01:37:22;;;;;;;30.25;16.42;;;11.80;99.90;;;;;;5055868;28;20021;-79
2021/11/19 01:39:48;;;;;;;27.73;15.50;;;11.80;99.90;;;;;;5056128;28;20028;-81
2021/11/19 01:42:19;;;;;;;28.33;15.68;;;11.80;99.90;;;;;;5054838;28;20354;-79
2021/11/19 01:45:05;;;;;;;28.83;17.08;;;11.80;99.90;;;;;;5055638;28;20048;-79
2021/11/19 01:47:32;;;;;;;28.20;17.15;;;11.70;99.90;;;;;;5054615;28;20021;-80
2021/11/19 01:50:00;;;;;;;25.33;15.93;;;11.70;99.90;;;;;;5041159;28;20028;-80
2021/11/19 01:52:36;;;;;;;27.58;16.38;;;11.70;99.90;;;;;;5054928;28;20021;-80
2021/11/19 01:55:15;;;;;;;32.15;16.75;;;11.70;99.90;;;;;;5054307;28;20021;-81
2021/11/19 01:57:48;;;;;;;27.45;16.80;;;11.60;99.90;;;;;;5055023;28;20052;-81
2021/11/19 02:00:29;;;;;;;29.67;16.70;;;11.70;99.90;;;;;;5054848;28;20024;-82
2021/11/19 02:02:56;;;;;;;28.20;17.00;;;11.70;99.90;;;;;;5053456;28;20021;-80
2021/11/19 02:05:33;;;;;;;25.17;15.95;;;11.70;99.90;;;;;;5054832;28;20126;-81
2021/11/19 02:08:07;;;;;;;31.65;17.88;;;11.80;99.90;;;;;;5057264;28;20021;-81
2021/11/19 02:10:46;;;;;;;33.50;17.27;;;11.70;99.90;;;;;;5055442;28;20513;-81
2021/11/19 02:13:23;;;;;;;27.42;16.05;;;11.80;99.90;;;;;;5054896;28;20021;-81
2021/11/19 02:15:54;;;;;;;24.58;16.80;;;11.80;99.90;;;;;;5054926;28;20037;-80
2021/11/19 02:18:37;;;;;;;27.92;16.63;;;11.70;99.90;;;;;;5054829;28;20029;-80
2021/11/19 02:21:13;;;;;;;23.83;16.73;;;11.70;99.90;;;;;;5055819;28;20060;-79
2021/11/19 02:24:01;;;;;;;34.35;17.88;;;11.70;99.90;;;;;;5056816;28;20021;-79
2021/11/19 02:26:35;;;;;;;32.08;17.17;;;11.80;99.90;;;;;;5056607;28;20455;-77
2021/11/19 02:29:03;;;;;;;42.92;18.23;;;11.80;99.90;;;;;;5056050;28;20496;-80
2021/11/19 02:31:43;;;;;;;25.38;18.15;;;11.70;99.90;;;;;;5054937;28;20036;-80
2021/11/19 02:34:09;;;;;;;34.97;19.52;;;11.80;99.90;;;;;;5054163;28;20017;-80
2021/11/19 02:36:45;;;;;;;28.55;17.95;;;11.70;99.90;;;;;;5055067;28;20091;-79
2021/11/19 02:39:28;;;;;;;26.48;18.38;;;11.70;99.90;;;;;;5059213;28;20043;-79
2021/11/19 02:41:58;;;;;;;28.80;17.83;;;11.80;99.90;;;;;;5055372;28;20025;-80
2021/11/19 02:44:25;;;;;;;28.95;18.92;;;11.70;99.90;;;;;;5054712;28;20065;-80
2021/11/19 02:46:57;;;;;;;28.52;18.42;;;11.70;99.90;;;;;;5056312;28;20033;-80
2021/11/19 02:49:23;;;;;;;33.47;19.88;;;11.80;99.90;;;;;;5055973;28;20078;-81
2021/11/19 02:51:50;;;;;;;31.33;19.55;;;11.80;99.90;;;;;;5055007;28;20028;-80
2021/11/19 02:54:18;;;;;;;31.05;17.77;;;11.70;99.90;;;;;;5054230;28;20033;-80
2021/11/19 02:56:45;;;;;;;31.65;19.08;;;11.70;99.90;;;;;;5054286;28;20021;-80
2021/11/19 02:59:12;;;;;;;30.48;19.83;;;11.70;99.90;;;;;;5052785;28;20025;-80
2021/11/19 03:01:52;;;;;;;31.45;19.25;;;11.70;99.90;;;;;;5053959;28;20389;-79
2021/11/19 03:04:23;;;;;;;26.33;17.80;;;11.70;99.90;;;;;;5053577;28;20098;-80
2021/11/19 03:06:51;;;;;;;31.17;18.83;;;11.80;99.90;;;;;;5053406;28;20040;-81
2021/11/19 03:09:23;;;;;;;33.42;19.13;;;11.80;99.90;;;;;;5053065;28;20075;-80
2021/11/19 03:11:48;;;;;;;31.73;20.27;;;11.80;99.90;;;;;;5053906;28;20032;-80
2021/11/19 03:14:15;;;;;;;34.00;18.60;;;11.70;99.90;;;;;;5053946;28;20444;-80
2021/11/19 03:16:43;;;;;;;34.85;19.90;;;11.70;99.90;;;;;;5052905;28;20028;-80
2021/11/19 03:19:09;;;;;;;34.70;19.80;;;11.70;99.90;;;;;;5052515;28;20698;-82
2021/11/19 03:21:36;;;;;;;35.15;20.38;;;11.70;99.90;;;;;;5053241;28;20044;-80
2021/11/19 03:24:02;;;;;;;29.13;19.63;;;11.70;99.90;;;;;;5053439;28;20048;-80
2021/11/19 03:26:32;;;;;;;32.17;19.23;;;11.60;99.90;;;;;;5053420;28;20052;-79
2021/11/19 03:28:58;;;;;;;31.77;18.55;;;11.70;99.90;;;;;;5053795;28;20059;-80
2021/11/19 03:31:24;;;;;;;32.20;19.38;;;11.60;99.90;;;;;;5053941;28;20079;-80
2021/11/19 03:33:51;;;;;;;32.90;18.98;;;11.60;99.90;;;;;;5052697;28;20033;-80
2021/11/19 03:36:19;;;;;;;35.88;19.23;;;11.70;99.90;;;;;;5053576;28;20021;-79
2021/11/19 03:38:48;;;;;;;31.33;19.10;;;11.70;99.90;;;;;;5053632;28;20029;-80
2021/11/19 03:41:16;;;;;;;32.05;19.13;;;11.70;99.90;;;;;;5053782;28;20420;-80
2021/11/19 03:43:55;;;;;;;30.02;19.77;;;11.70;99.90;;;;;;5052806;28;20242;-81
2021/11/19 03:46:27;;;;;;;29.83;17.95;;;11.70;99.90;;;;;;5054029;28;20051;-79
2021/11/19 03:48:53;;;;;;;29.60;19.35;;;11.70;99.90;;;;;;5053894;28;20029;-81
2021/11/19 03:51:26;;;;;;;27.38;17.88;;;11.70;99.90;;;;;;5054086;28;20147;-81
2021/11/19 03:53:52;;;;;;;33.80;19.23;;;11.80;99.90;;;;;;5053209;28;20032;-81
2021/11/19 03:56:18;;;;;;;32.58;18.08;;;11.80;99.90;;;;;;5051791;28;20063;-81
2021/11/19 03:58:45;;;;;;;32.17;19.35;;;11.70;99.90;;;;;;5052875;28;20029;-81
2021/11/19 04:01:28;;;;;;;27.92;17.63;;;11.80;99.90;;;;;;5050829;28;20021;-81
2021/11/19 04:03:54;;;;;;;24.30;16.80;;;11.80;99.90;;;;;;5052587;28;20033;-79
2021/11/19 04:06:21;;;;;;;30.23;18.30;;;11.60;99.90;;;;;;5052471;28;20047;-80
2021/11/19 04:08:47;;;;;;;26.38;17.35;;;11.80;99.90;;;;;;5052452;28;20037;-80
2021/11/19 04:11:14;;;;;;;27.23;18.38;;;11.70;99.90;;;;;;5052792;28;20388;-80
2021/11/19 04:13:40;;;;;;;34.05;18.50;;;11.70;99.90;;;;;;5053495;28;20079;-80
2021/11/19 04:16:10;;;;;;;28.38;17.20;;;11.80;99.90;;;;;;5052098;28;20027;-81
2021/11/19 04:18:36;;;;;;;26.13;17.05;;;11.70;99.90;;;;;;5052939;28;20029;-81
2021/11/19 04:21:02;;;;;;;35.55;16.45;;;11.70;99.90;;;;;;5052683;28;20082;-80
2021/11/19 04:23:29;;;;;;;25.20;17.15;;;11.80;99.90;;;;;;5052184;28;20377;-80
2021/11/19 04:25:57;;;;;;;28.42;16.58;;;11.70;99.90;;;;;;5052892;28;20025;-79
2021/11/19 04:28:23;;;;;;;28.92;17.13;;;11.70;99.90;;;;;;5052812;28;20033;-80
2021/11/19 04:30:52;;;;;;;30.98;16.02;;;11.70;99.90;;;;;;5051378;28;20029;-81
2021/11/19 04:33:19;;;;;;;26.67;17.27;;;11.70;99.90;;;;;;5051460;28;20037;-79
2021/11/19 04:35:46;;;;;;;27.13;16.67;;;11.80;99.90;;;;;;5052299;28;20040;-80
2021/11/19 04:38:13;;;;;;;30.60;16.58;;;11.80;99.90;;;;;;5051805;28;20029;-83
2021/11/19 04:40:39;;;;;;;22.77;16.40;;;11.80;99.90;;;;;;5052141;28;20025;-78
2021/11/19 04:43:06;;;;;;;25.73;15.85;;;11.90;99.90;;;;;;5052457;28;20495;-78
2021/11/19 04:45:33;;;;;;;31.40;17.65;;;11.90;99.90;;;;;;5061446;28;20033;-80
2021/11/19 04:48:00;;;;;;;36.00;18.77;;;11.90;99.90;;;;;;5052082;28;20083;-79
2021/11/19 04:50:30;;;;;;;26.52;16.75;;;11.90;99.90;;;;;;5051444;28;20037;-79
2021/11/19 04:52:55;;;;;;;25.30;17.02;;;11.90;99.90;;;;;;5051968;28;20044;-80
2021/11/19 04:55:22;;;;;;;22.77;15.15;;;11.90;99.90;;;;;;5053890;28;20033;-81
2021/11/19 04:57:47;;;;;;;25.40;16.35;;;11.90;99.90;;;;;;5050968;28;20021;-80
2021/11/19 05:00:21;;;;;;;29.15;17.33;;;11.90;99.90;;;;;;5052067;28;20549;-80
2021/11/19 05:02:47;;;;;;;41.00;16.58;;;11.90;99.90;;;;;;5053689;28;20021;-80
2021/11/19 05:05:13;;;;;;;26.00;15.63;;;11.90;99.90;;;;;;5051983;28;20523;-82
2021/11/19 05:07:38;;;;;;;24.55;15.63;;;11.90;99.90;;;;;;5051845;28;20032;-82
2021/11/19 05:10:08;;;;;;;25.95;14.68;;;12.00;99.90;;;;;;5051542;28;20021;-79
2021/11/19 05:12:38;;;;;;;25.15;15.65;;;11.90;99.90;;;;;;5050805;28;20025;-78
2021/11/19 05:15:05;;;;;;;;;;;11.90;99.90;;;;;;5051885;28;20021;-79
2021/11/19 05:17:32;;;;;;;22.23;13.95;;;11.90;99.90;;;;;;5053621;28;19908;-79
2021/11/19 05:19:58;;;;;;;28.15;14.85;;;11.90;99.90;;;;;;5051827;28;20032;-80
2021/11/19 05:22:23;;;;;;;27.50;14.70;;;11.90;99.90;;;;;;5038639;28;20110;-81
2021/11/19 05:24:50;;;;;;;24.42;14.88;;;11.90;99.90;;;;;;5052223;28;20488;-80
2021/11/19 05:27:17;;;;;;;30.30;14.13;;;11.90;99.90;;;;;;5050880;28;20021;-80
2021/11/19 05:29:42;;;;;;;23.08;14.38;;;11.90;99.90;;;;;;5052215;28;20091;-79
2021/11/19 05:32:09;;;;;;;31.05;14.13;;;11.90;99.90;;;;;;5051570;28;20021;-80
2021/11/19 05:34:35;;;;;;;29.33;15.00;;;11.80;99.90;;;;;;5051881;28;20448;-81
2021/11/19 05:37:01;;;;;;;20.23;13.73;;;11.80;99.90;;;;;;5051694;28;20096;-79
2021/11/19 05:39:26;;;;;;;23.08;13.93;;;11.80;99.90;;;;;;5051544;28;20083;-80
2021/11/19 05:41:52;;;;;;;24.33;14.43;;;11.80;99.90;;;;;;5051333;28;20078;-80
2021/11/19 05:44:18;;;;;;;19.67;12.77;;;11.90;99.90;;;;;;5051245;28;20078;-80
2021/11/19 05:46:46;;;;;;;26.40;13.68;;;11.90;99.90;;;;;;5050732;28;20032;-79
2021/11/19 05:49:15;;;;;;;22.70;13.02;;;11.90;99.90;;;;;;5050741;28;20466;-80
2021/11/19 05:51:42;;;;;;;19.20;12.40;;;11.90;99.90;;;;;;5051508;28;20066;-81
2021/11/19 05:54:10;;;;;;;30.48;14.90;;;11.80;99.90;;;;;;5050496;28;20040;-80
2021/11/19 05:56:37;;;;;;;26.30;13.52;;;11.90;99.90;;;;;;5052398;28;20107;-80
2021/11/19 05:59:03;;;;;;;24.42;14.15;;;11.90;99.90;;;;;;5054291;28;20018;-81
2021/11/19 06:01:29;;;;;;;26.52;13.40;;;12.00;99.90;;;;;;5053915;28;20025;-79
2021/11/19 06:03:55;;;;;;;21.02;13.10;;;12.00;99.90;;;;;;5054650;28;20021;-80
2021/11/19 06:06:22;;;;;;;22.50;13.10;;;12.00;99.90;;;;;;5054631;28;20094;-80
2021/11/19 06:08:47;;;;;;;23.02;12.23;;;12.00;99.90;;;;;;5054106;28;20485;-81
2021/11/19 06:11:30;;;;;;;28.52;12.82;;;12.00;99.90;;;;;;5055472;28;20048;-78
2021/11/19 06:14:00;;;;;;;17.80;12.63;;;12.00;99.90;;;;;;5055498;28;20032;-80
2021/11/19 06:16:32;;;;;;;20.48;12.05;;;12.00;99.90;;;;;;5055828;28;20029;-82
2021/11/19 06:19:02;;;;;;;23.45;13.05;;;12.00;99.90;;;;;;5054893;28;20024;-79
2021/11/19 06:21:33;;;;;;;23.23;12.07;;;11.90;99.90;;;;;;5054914;28;20025;-80
2021/11/19 06:24:04;;;;;;;18.85;12.25;;;12.00;99.90;;;;;;5053565;28;20350;-80
2021/11/19 06:26:31;;;;;;;15.90;11.88;;;11.90;99.90;;;;;;5054408;28;20036;-79
2021/11/19 06:29:02;;;;;;;26.88;12.80;;;11.90;99.90;;;;;;5053324;28;20396;-80
2021/11/19 06:31:28;;;;;;;23.45;11.32;;;11.90;99.90;;;;;;5054311;28;20154;-81
2021/11/19 06:33:54;;;;;;;19.38;11.85;;;11.90;99.90;;;;;;5054031;28;20484;-80
2021/11/19 06:36:20;;;;;;;18.95;11.40;;;11.90;99.90;;;;;;5054755;28;20025;-81
2021/11/19 06:38:48;;;;;;;17.63;11.70;;;11.90;99.90;;;;;;5054730;28;20027;-79
2021/11/19 06:41:14;;;;;;;16.33;10.85;;;11.90;99.90;;;;;;5054252;28;20029;-80
2021/11/19 06:43:42;;;;;;;15.77;10.38;;;11.90;99.90;;;;;;5052777;28;20400;-80
2021/11/19 06:46:09;;;;;;;13.35;9.75;;;11.90;99.90;;;;;;5043564;28;20518;-81
2021/11/19 06:48:35;;;;;;;19.90;10.88;;;11.90;99.90;;;;;;5044952;28;20366;-80
2021/11/19 06:51:03;;;;;;;22.13;11.45;;;11.90;99.90;;;;;;5038944;28;20035;-80
2021/11/19 06:53:33;;;;;;;18.45;10.35;;;11.90;99.90;;;;;;5040949;28;20039;-80
2021/11/19 06:55:58;;;;;;;17.92;10.52;;;11.90;99.90;;;;;;5041482;28;20026;-80
2021/11/19 06:58:26;;;;;;;20.67;11.32;;;11.90;99.90;;;;;;5034333;28;20049;-81
2021/11/19 07:00:54;;;;;;;13.00;10.73;;;11.90;99.90;;;;;;5042506;28;20026;-79
2021/11/19 07:03:23;;;;;;;22.83;10.60;;;11.90;99.90;;;;;;5038820;28;20079;-80
2021/11/19 07:05:49;;;;;;;15.02;10.18;;;11.90;99.90;;;;;;5039285;28;20048;-79
2021/11/19 07:08:15;;;;;;;29.67;10.85;;;11.90;99.90;;;;;;5040132;28;20056;-79
2021/11/19 07:10:45;;;;;;;19.00;10.82;;;12.00;99.90;;;;;;5037513;28;20461;-79
2021/11/19 07:13:12;;;;;;;14.38;10.43;;;12.00;99.90;;;;;;5054794;28;20082;-80
2021/11/19 07:15:38;;;;;;;16.15;10.82;;;11.90;99.90;;;;;;5053144;28;20115;-81
2021/11/19 07:18:04;;;;;;;19.65;11.05;;;11.90;99.90;;;;;;5051880;28;20465;-80
2021/11/19 07:20:32;;;;;;;26.88;10.50;;;11.90;99.90;;;;;;5053004;28;20029;-80
2021/11/19 07:23:01;;;;;;;22.80;10.23;;;11.90;99.90;;;;;;5052386;28;20537;-78
2021/11/19 07:25:29;;;;;;;22.05;10.18;;;11.90;99.90;;;;;;5051820;28;20032;-78
2021/11/19 07:27:57;;;;;;;18.85;10.50;;;11.90;99.90;;;;;;5052244;28;20108;-78
2021/11/19 07:30:35;;;;;;;21.33;10.52;;;11.90;99.90;;;;;;5050770;28;20025;-77
2021/11/19 07:33:01;;;;;;;20.48;10.40;;;11.80;99.90;;;;;;5051489;28;20147;-77
2021/11/19 07:35:26;;;;;;;17.40;10.45;;;11.80;99.90;;;;;;5050105;28;20075;-77
2021/11/19 07:37:52;;;;;;;16.83;10.07;;;11.80;99.90;;;;;;5052530;28;20021;-80
2021/11/19 07:40:23;;;;;;;14.20;9.32;;;11.90;99.90;;;;;;5052731;28;20032;-81
2021/11/19 07:42:49;;;;;;;20.27;10.15;;;11.80;99.90;;;;;;5054152;28;20033;-83
2021/11/19 07:45:16;;;;;;;14.70;9.32;;;11.80;99.90;;;;;;5051074;28;20033;-85
2021/11/19 07:47:42;;;;;;;16.40;9.95;;;11.80;99.90;;;;;;5057065;28;20056;-84
2021/11/19 07:50:11;;;;;;;16.77;9.30;;;11.80;99.90;;;;;;5058615;28;20021;-85
2021/11/19 07:52:36;;;;;;;22.02;10.18;;;11.90;99.90;;;;;;5061281;28;20025;-84
2021/11/19 07:55:04;;;;;;;20.45;10.07;;;11.90;99.90;;;;;;5056418;28;20086;-82
2021/11/19 07:57:30;;;;;;;15.70;9.45;;;12.00;99.90;;;;;;5053197;28;20036;-81
2021/11/19 07:59:55;;;;;;;20.67;8.60;;;12.80;99.90;;;;;;5052886;28;20017;-82
2021/11/19 08:02:21;;;;;;;18.27;8.98;;;12.10;99.90;;;;;;5056641;28;20053;-82
2021/11/19 08:04:47;;;;;;;21.85;10.10;;;12.10;99.90;;;;;;5059866;28;20124;-86
2021/11/19 08:07:13;;;;;;;18.98;8.82;;;12.10;99.90;;;;;;5059667;28;20087;-83
2021/11/19 08:09:38;;;;;;;16.35;8.85;;;12.10;99.90;;;;;;5057507;28;20465;-82
2021/11/19 08:12:04;;;;;;;19.77;8.90;;;12.20;99.90;;;;;;5060216;28;20024;-83
2021/11/19 08:14:30;;;;;;;14.57;7.97;;;12.20;99.90;;;;;;5065008;28;20029;-84
2021/11/19 08:17:04;;;;;;;15.25;8.02;;;12.20;99.90;;;;;;5069155;28;20028;-82
2021/11/19 08:19:43;;;;;;;14.48;7.97;;;12.30;99.90;;;;;;5054993;28;20036;-80
2021/11/19 08:22:09;;;;;;;15.18;7.43;;;12.30;99.90;;;;;;5054558;28;20035;-80
2021/11/19 08:24:34;;;;;;;16.92;7.15;;;12.40;99.90;;;;;;5056156;28;20377;-80
2021/11/19 08:27:05;;;;;;;12.20;7.18;;;12.40;99.90;;;;;;5054964;28;20021;-80
2021/11/19 08:29:33;;;;;;;12.43;7.10;;;12.30;99.90;;;;;;5054306;28;20119;-79
2021/11/19 08:32:00;;;;;;;22.73;7.53;;;12.40;99.90;;;;;;5055839;28;20021;-79
2021/11/19 08:34:26;;;;;;;14.35;7.43;;;12.40;99.90;;;;;;5056510;28;20033;-79
2021/11/19 08:36:53;;;;;;;15.52;7.57;;;12.40;99.90;;;;;;5056477;28;20013;-81
2021/11/19 08:39:22;;;;;;;17.88;7.43;;;12.40;99.90;;;;;;5057375;28;20017;-80
2021/11/19 08:41:49;;;;;;;12.00;6.97;;;12.50;99.90;;;;;;5059051;28;20385;-81
2021/11/19 08:44:14;;;;;;;18.77;6.32;;;12.60;99.90;;;;;;5059366;28;20104;-80
2021/11/19 08:46:44;;;;;;;17.13;5.70;;;12.50;99.90;;;;;;5058406;28;20067;-83
2021/11/19 08:49:13;;;;;;;14.02;6.07;;;12.50;99.90;;;;;;5061544;28;20036;-81
2021/11/19 08:51:40;;;;;;;14.13;5.65;;;12.50;99.90;;;;;;5060400;28;20032;-81
2021/11/19 08:54:09;;;;;;;13.20;6.35;;;12.60;99.90;;;;;;5058869;28;20037;-82
2021/11/19 08:56:41;;;;;;;10.82;6.30;;;12.50;99.90;;;;;;5064138;28;20025;-80
2021/11/19 08:59:10;;;;;;;10.43;5.55;;;12.60;99.90;;;;;;5063532;28;20021;-80
2021/11/19 09:01:38;;;;;;;15.00;6.15;;;12.70;99.90;;;;;;5060804;28;20028;-78
2021/11/19 09:04:06;;;;;;;18.85;6.75;;;12.60;99.90;;;;;;5062056;28;20431;-83
2021/11/19 09:06:33;;;;;;;10.20;6.13;;;12.70;99.90;;;;;;5063903;28;20044;-82
2021/11/19 09:08:59;;;;;;;13.82;5.43;;;12.80;99.90;;;;;;5065105;28;20037;-86
2021/11/19 09:11:26;;;;;;;14.35;5.60;;;12.80;99.90;;;;;;5056836;28;20025;-81
2021/11/19 09:13:57;;;;;;;15.05;5.47;;;12.80;99.90;;;;;;5063251;28;20041;-83
2021/11/19 09:16:27;;;;;;;12.15;6.10;;;12.80;99.90;;;;;;5064123;28;20032;-83
2021/11/19 09:19:37;;;;;;;11.65;5.35;;;12.90;99.90;;;;;;5065933;28;20014;-80
2021/11/19 09:22:25;;;;;;;8.40;4.40;;;12.90;99.90;;;;;;5050204;28;20032;-82
2021/11/19 09:24:50;;;;;;;12.20;5.43;;;12.90;99.90;;;;;;5062956;28;20022;-81
2021/11/19 09:27:18;;;;;;;15.55;5.57;;;13.00;99.90;;;;;;5065409;28;20083;-81
2021/11/19 09:29:59;;;;;;;13.60;5.18;;;13.00;99.90;;;;;;5064904;28;20123;-81
2021/11/19 09:32:26;;;;;;;10.40;4.68;;;13.10;99.90;;;;;;5062457;28;20021;-81
2021/11/19 09:34:54;;;;;;;18.42;5.00;;;13.10;99.90;;;;;;5062914;28;20029;-83
2021/11/19 09:37:21;;;;;;;10.30;5.10;;;13.20;99.90;;;;;;5063790;28;20041;-80
2021/11/19 09:39:48;;;;;;;17.35;7.53;;;13.20;99.90;;;;;;5061462;28;20032;-76
2021/11/19 09:42:29;;;;;;;13.07;5.20;;;13.20;99.90;;;;;;5061486;28;20387;-82
2021/11/19 09:45:21;;;;;;;9.13;4.40;;;13.10;99.90;;;;;;5063135;28;20067;-83
2021/11/19 09:47:56;;;;;;;14.27;5.57;;;13.00;99.90;;;;;;5063200;28;20041;-82
2021/11/19 09:50:38;;;;;;;11.05;4.88;;;13.00;99.90;;;;;;5060918;28;20547;-83
2021/11/19 09:53:22;;;;;;;8.13;5.25;;;13.10;99.90;;;;;;5061203;28;20032;-84
2021/11/19 09:56:09;;;;;;;16.95;5.40;;;13.10;99.90;;;;;;5065629;28;20029;-83
2021/11/19 09:58:59;;;;;;;7.55;5.10;;;13.10;99.90;;;;;;5055886;28;20022;-82
2021/11/19 10:02:03;;;;;;;11.30;5.70;;;13.20;99.90;;;;;;5060729;28;20027;-82
2021/11/19 10:04:56;;;;;;;11.15;5.50;;;13.30;99.90;;;;;;5061962;28;20079;-82
2021/11/19 10:07:47;;;;;;;10.38;5.57;;;13.30;99.90;;;;;;5054359;28;20493;-80
2021/11/19 10:10:31;;;;;;;9.82;5.60;;;13.50;99.90;;;;;;5064099;28;20021;-85
2021/11/19 10:13:30;;;;;;;8.50;4.75;;;13.60;99.90;;;;;;5057083;28;20021;-83
2021/11/19 10:16:02;;;;;;;10.82;5.13;;;13.60;99.90;;;;;;5041228;28;20136;-81
2021/11/19 10:18:52;;;;;;;11.88;5.70;;;13.70;99.90;;;;;;5047751;28;20469;-79
2021/11/19 10:21:24;;;;;;;7.50;5.35;;;13.70;99.90;;;;;;5037808;28;20124;-79
2021/11/19 10:23:55;;;;;;;11.43;5.13;;;13.60;99.90;;;;;;5055317;28;20032;-79
2021/11/19 10:26:41;;;;;;;11.32;5.05;;;13.50;99.90;;;;;;5055410;28;20107;-81
2021/11/19 10:29:17;;;;;;;6.28;4.25;;;13.50;99.90;;;;;;5054021;28;20033;-81
2021/11/19 10:31:46;;;;;;;11.70;5.70;;;13.40;99.90;;;;;;5051210;28;20025;-78
2021/11/19 10:34:38;;;;;;;15.77;5.40;;;13.40;99.90;;;;;;5045515;28;20039;-77
2021/11/19 10:37:28;;;;;;;6.82;4.85;;;13.50;99.90;;;;;;5050203;28;20496;-77
2021/11/19 10:40:27;;;;;;;13.77;5.88;;;13.50;99.90;;;;;;5055948;28;20032;-79
2021/11/19 10:43:25;;;;;;;10.55;4.72;;;13.60;99.90;;;;;;5053940;28;20464;-78
2021/11/19 10:46:38;;;;;;;15.15;5.20;;;13.60;99.90;;;;;;5052918;28;20017;-78
2021/11/19 10:49:32;;;;;;;11.65;5.13;;;13.60;99.90;;;;;;5015689;28;20529;-81
2021/11/19 10:52:22;;;;;;;10.70;5.10;;;13.60;99.90;;;;;;5056920;28;20017;-78
2021/11/19 10:55:09;;;;;;;7.78;4.95;;;13.60;99.90;;;;;;5053474;28;20112;-80
2021/11/19 10:57:56;;;;;;;9.65;5.15;;;13.50;99.90;;;;;;5057177;28;20029;-76
2021/11/19 11:00:36;;;;;;;8.25;4.35;;;13.40;99.90;;;;;;5055876;28;20021;-77
2021/11/19 11:03:10;;;;;;;11.00;4.75;;;13.40;99.90;;;;;;5054124;28;20031;-76
2021/11/19 11:05:40;;;;;;;10.55;5.25;;;13.40;99.90;;;;;;5051651;28;20045;-77
2021/11/19 11:08:36;;;;;;;6.05;4.30;;;13.60;99.90;;;;;;5055263;28;20028;-77
2021/11/19 11:11:29;;;;;;;9.75;4.68;;;13.60;99.90;;;;;;5043229;28;20047;-77
2021/11/19 11:14:02;;;;;;;11.50;4.88;;;13.80;99.90;;;;;;5054222;28;20032;-76
2021/11/19 11:16:40;;;;;;;8.77;4.68;;;13.90;99.90;;;;;;5053970;28;20099;-77
2021/11/19 11:19:12;;;;;;;7.38;4.82;;;14.10;99.90;;;;;;5053040;28;20071;-76
2021/11/19 11:21:58;;;;;;;5.78;3.88;;;14.20;99.90;;;;;;5054192;28;20368;-77
2021/11/19 11:24:28;;;;;;;4.97;3.53;;;14.30;99.90;;;;;;5042207;28;20094;-80
2021/11/19 11:27:02;;;;;;;5.13;3.17;;;14.40;99.90;;;;;;5054507;28;20032;-77
2021/11/19 11:29:52;;;;;;;7.35;3.38;;;14.40;99.90;;;;;;5054954;28;20033;-78
2021/11/19 11:32:51;;;;;;;7.50;3.30;;;14.30;99.90;;;;;;5053522;28;20024;-77
2021/11/19 11:35:38;;;;;;;5.93;3.22;;;14.30;99.90;;;;;;5054252;28;20044;-78
2021/11/19 11:38:07;;;;;;;9.65;3.72;;;14.20;99.90;;;;;;5054406;28;20029;-77
2021/11/19 11:41:05;;;;;;;3.25;2.95;;;14.20;99.90;;;;;;5054125;28;20040;-76
2021/11/19 11:43:38;;;;;;;7.72;3.45;;;14.30;99.90;;;;;;5030590;28;20044;-77
2021/11/19 11:46:44;;;;;;;3.92;3.30;;;14.30;99.90;;;;;;5053224;28;20433;-77
2021/11/19 11:49:28;;;;;;;10.65;3.92;;;14.20;99.90;;;;;;5049996;28;20115;-76
2021/11/19 11:52:04;;;;;;;5.80;2.58;;;14.20;99.90;;;;;;5053155;28;20013;-78
2021/11/19 11:54:55;;;;;;;8.38;2.25;;;14.20;99.90;;;;;;5052607;28;20052;-78
2021/11/19 11:57:20;;;;;;;13.65;4.15;;;14.20;99.90;;;;;;5040674;28;20134;-77
2021/11/19 12:00:03;;;;;;;4.25;1.80;;;14.20;99.90;;;;;;5045692;28;20089;-77
2021/11/19 12:02:52;;;;;;;5.88;2.25;;;14.20;99.90;;;;;;5035200;28;20022;-77
2021/11/19 12:05:39;;;;;;;4.32;2.33;;;14.20;99.90;;;;;;5036513;28;20045;-77
2021/11/19 12:08:13;;;;;;;9.23;2.20;;;14.30;99.90;;;;;;5048262;28;20112;-75
2021/11/19 12:10:56;;;;;;;5.03;2.05;;;14.30;99.90;;;;;;5052021;28;20029;-76
2021/11/19 12:13:34;;;;;;;5.53;2.70;;;14.30;99.90;;;;;;5050737;28;20021;-77
2021/11/19 12:16:38;;;;;;;5.25;2.25;;;14.30;99.90;;;;;;5051703;28;20064;-76
2021/11/19 12:19:18;;;;;;;7.28;2.00;;;14.30;99.90;;;;;;5051100;28;20100;-76
2021/11/19 12:22:06;;;;;;;5.13;2.20;;;14.20;99.90;;;;;;5050727;28;20507;-76
2021/11/19 12:25:08;;;;;;;8.65;2.22;;;14.20;99.90;;;;;;5053143;28;20469;-77
2021/11/19 12:27:41;;;;;;;3.13;2.05;;;14.20;99.90;;;;;;5050317;28;20028;-75
2021/11/19 12:30:22;;;;;;;4.97;2.10;;;14.20;99.90;;;;;;5049178;28;20070;-76
2021/11/19 12:33:07;;;;;;;2.53;2.15;;;14.10;99.90;;;;;;5050104;28;20025;-77
2021/11/19 12:35:36;;;;;;;6.72;2.17;;;14.20;99.90;;;;;;5047903;28;20083;-77
2021/11/19 12:38:09;;;;;;;8.60;2.42;;;14.20;99.90;;;;;;5052711;28;20104;-76
2021/11/19 12:40:50;;;;;;;6.70;1.73;;;14.20;99.90;;;;;;5040240;28;20026;-77
2021/11/19 12:43:47;;;;;;;3.75;1.52;;;14.30;99.90;;;;;;5035145;28;21182;-76
2021/11/19 12:46:35;;;;;;;3.22;1.55;;;14.90;99.90;;;;;;5033819;28;20232;-78
2021/11/19 12:49:38;;;;;;;3.13;1.20;;;14.30;99.90;;;;;;5043074;28;20700;-76
2021/11/19 12:52:33;;;;;;;2.97;1.40;;;14.30;99.90;;;;;;5043703;28;20024;-76
2021/11/19 12:55:25;;;;;;;4.97;1.30;;;14.30;99.90;;;;;;5047675;28;20036;-76
2021/11/19 12:57:59;;;;;;;3.85;1.30;;;14.20;99.90;;;;;;5048117;28;20146;-76
2021/11/19 13:00:40;;;;;;;8.05;1.52;;;14.30;99.90;;;;;;5047766;28;20496;-77